Patton, Illinois
Current Conditions -  °F | °C
As of 12:15 PM on Sunday 25 Jan 2015 (Local Time) from KAJG Reporting Station
Overcast Overcast  
Wind Chill: 43°   Ceiling: 700
Heat Index: 43°   Visibility: 7mi
Dew Point: 37°   Wind: 0mph
Humidity: 81%   Direction: NA
Pressure: 29.59"   Gusts: NA
Location:  38.4145°N, 87.8638°W
Report Text: KAJG 251815Z AUTO 00000KT 7SM BKN007 OVC013 06/03 A2959 RMK AO2
Loading
Personal Weather Stations






























Interactive Weather Map New forecast layout! Learn more

10-Day Weather Forecast

Advertisements
Track Severe Weather on mobile